sensor_id;sensor_type;location;lat;lon;timestamp;P1;durP1;ratioP1;P2;durP2;ratioP2
75922;SDS011;64602;47.542;19.090;2023-02-15T07:02:48;42.90;;;18.27;;
75922;SDS011;64602;47.542;19.090;2023-02-15T07:07:57;35.40;;;16.87;;
75922;SDS011;64602;47.542;19.090;2023-02-15T07:13:00;37.67;;;17.73;;
75922;SDS011;64602;47.542;19.090;2023-02-15T07:18:02;36.40;;;17.67;;
75922;SDS011;64602;47.542;19.090;2023-02-15T07:23:04;35.87;;;17.17;;
75922;SDS011;64602;47.542;19.090;2023-02-15T07:28:06;37.53;;;17.77;;
75922;SDS011;64602;47.542;19.090;2023-02-15T07:33:11;39.80;;;18.90;;
75922;SDS011;64602;47.542;19.090;2023-02-15T07:38:25;35.47;;;17.87;;
75922;SDS011;64602;47.542;19.090;2023-02-15T07:43:29;34.60;;;16.20;;
75922;SDS011;64602;47.542;19.090;2023-02-15T07:48:32;36.15;;;17.27;;
75922;SDS011;64602;47.542;19.090;2023-02-15T07:53:34;42.00;;;18.37;;
75922;SDS011;64602;47.542;19.090;2023-02-15T07:58:37;38.90;;;17.07;;
75922;SDS011;64602;47.542;19.090;2023-02-15T08:03:53;32.90;;;17.70;;
75922;SDS011;64602;47.542;19.090;2023-02-15T08:08:56;33.20;;;16.90;;
75922;SDS011;64602;47.542;19.090;2023-02-15T08:14:17;34.30;;;16.50;;
75922;SDS011;64602;47.542;19.090;2023-02-15T08:24:27;36.70;;;16.12;;
75922;SDS011;64602;47.542;19.090;2023-02-15T08:29:30;37.07;;;17.13;;
75922;SDS011;64602;47.542;19.090;2023-02-15T08:34:35;33.65;;;17.30;;
75922;SDS011;64602;47.542;19.090;2023-02-15T08:39:39;37.20;;;17.80;;
75922;SDS011;64602;47.542;19.090;2023-02-15T08:44:41;37.43;;;18.00;;
75922;SDS011;64602;47.542;19.090;2023-02-15T08:49:43;38.53;;;18.30;;
75922;SDS011;64602;47.542;19.090;2023-02-15T08:54:46;38.63;;;18.23;;
75922;SDS011;64602;47.542;19.090;2023-02-15T08:59:48;32.08;;;16.25;;
75922;SDS011;64602;47.542;19.090;2023-02-15T09:04:51;33.23;;;16.07;;
75922;SDS011;64602;47.542;19.090;2023-02-15T09:09:54;33.15;;;15.95;;
75922;SDS011;64602;47.542;19.090;2023-02-15T09:14:56;37.13;;;17.92;;
75922;SDS011;64602;47.542;19.090;2023-02-15T09:19:58;43.27;;;18.77;;
75922;SDS011;64602;47.542;19.090;2023-02-15T09:25:00;36.97;;;18.27;;
75922;SDS011;64602;47.542;19.090;2023-02-15T09:30:03;39.42;;;17.83;;
75922;SDS011;64602;47.542;19.090;2023-02-15T09:35:05;36.17;;;18.23;;
75922;SDS011;64602;47.542;19.090;2023-02-15T09:40:07;41.40;;;18.80;;
75922;SDS011;64602;47.542;19.090;2023-02-15T09:45:20;41.45;;;20.10;;
75922;SDS011;64602;47.542;19.090;2023-02-15T09:50:44;42.15;;;20.20;;
75922;SDS011;64602;47.542;19.090;2023-02-15T10:39:23;33.78;;;15.98;;
75922;SDS011;64602;47.542;19.090;2023-02-15T10:44:49;33.22;;;16.37;;
75922;SDS011;64602;47.542;19.090;2023-02-15T10:56:17;25.33;;;14.60;;
75922;SDS011;64602;47.542;19.090;2023-02-15T11:01:08;30.90;;;16.00;;
75922;SDS011;64602;47.542;19.090;2023-02-15T11:06:14;24.47;;;14.43;;
75922;SDS011;64602;47.542;19.090;2023-02-15T11:11:23;24.55;;;15.35;;
75922;SDS011;64602;47.542;19.090;2023-02-15T11:16:34;25.65;;;16.25;;
75922;SDS011;64602;47.542;19.090;2023-02-15T11:21:45;24.30;;;17.77;;
75922;SDS011;64602;47.542;19.090;2023-02-15T11:26:54;28.97;;;18.70;;
75922;SDS011;64602;47.542;19.090;2023-02-15T11:32:02;24.52;;;17.33;;
75922;SDS011;64602;47.542;19.090;2023-02-15T11:37:17;23.95;;;17.65;;
75922;SDS011;64602;47.542;19.090;2023-02-15T11:42:25;23.23;;;16.07;;
75922;SDS011;64602;47.542;19.090;2023-02-15T11:47:29;22.42;;;16.60;;
75922;SDS011;64602;47.542;19.090;2023-02-15T11:52:31;25.35;;;17.42;;
75922;SDS011;64602;47.542;19.090;2023-02-15T11:57:38;24.20;;;17.57;;
75922;SDS011;64602;47.542;19.090;2023-02-15T12:02:46;25.50;;;17.75;;
75922;SDS011;64602;47.542;19.090;2023-02-15T12:08:00;25.02;;;17.48;;
75922;SDS011;64602;47.542;19.090;2023-02-15T12:13:10;23.60;;;16.40;;
75922;SDS011;64602;47.542;19.090;2023-02-15T12:18:31;24.13;;;17.23;;
75922;SDS011;64602;47.542;19.090;2023-02-15T12:23:46;24.75;;;17.42;;
75922;SDS011;64602;47.542;19.090;2023-02-15T12:28:50;25.37;;;17.95;;
75922;SDS011;64602;47.542;19.090;2023-02-15T12:33:56;30.60;;;18.27;;
75922;SDS011;64602;47.542;19.090;2023-02-15T12:39:05;30.48;;;18.98;;
75922;SDS011;64602;47.542;19.090;2023-02-15T12:49:21;29.73;;;18.80;;
75922;SDS011;64602;47.542;19.090;2023-02-15T12:54:30;31.67;;;19.85;;
75922;SDS011;64602;47.542;19.090;2023-02-15T12:59:51;30.83;;;18.17;;
75922;SDS011;64602;47.542;19.090;2023-02-15T13:04:54;34.23;;;20.20;;
75922;SDS011;64602;47.542;19.090;2023-02-15T13:09:58;31.40;;;17.73;;
75922;SDS011;64602;47.542;19.090;2023-02-15T13:15:00;30.95;;;18.60;;
75922;SDS011;64602;47.542;19.090;2023-02-15T13:20:06;28.25;;;17.52;;
75922;SDS011;64602;47.542;19.090;2023-02-15T13:25:22;29.90;;;17.53;;
75922;SDS011;64602;47.542;19.090;2023-02-15T13:35:30;25.95;;;16.87;;
75922;SDS011;64602;47.542;19.090;2023-02-15T13:51:26;25.37;;;15.10;;
75922;SDS011;64602;47.542;19.090;2023-02-15T13:57:25;25.77;;;16.47;;
75922;SDS011;64602;47.542;19.090;2023-02-15T14:02:38;24.43;;;14.70;;
75922;SDS011;64602;47.542;19.090;2023-02-15T14:18:49;29.20;;;16.13;;
75922;SDS011;64602;47.542;19.090;2023-02-15T14:40:02;29.87;;;14.68;;
75922;SDS011;64602;47.542;19.090;2023-02-15T14:45:40;27.98;;;15.27;;
75922;SDS011;64602;47.542;19.090;2023-02-15T14:50:57;25.57;;;13.83;;
75922;SDS011;64602;47.542;19.090;2023-02-15T15:01:15;28.60;;;14.82;;
75922;SDS011;64602;47.542;19.090;2023-02-15T15:06:30;27.45;;;14.60;;
75922;SDS011;64602;47.542;19.090;2023-02-15T15:16:46;29.73;;;15.27;;
75922;SDS011;64602;47.542;19.090;2023-02-15T15:27:35;30.73;;;16.20;;
75922;SDS011;64602;47.542;19.090;2023-02-15T15:32:33;28.12;;;16.42;;
75922;SDS011;64602;47.542;19.090;2023-02-15T15:48:36;31.17;;;15.77;;
75922;SDS011;64602;47.542;19.090;2023-02-15T15:53:42;29.75;;;16.40;;
75922;SDS011;64602;47.542;19.090;2023-02-15T15:58:51;31.50;;;16.33;;
75922;SDS011;64602;47.542;19.090;2023-02-15T16:03:58;33.60;;;15.70;;
75922;SDS011;64602;47.542;19.090;2023-02-15T16:09:11;34.35;;;15.95;;
75922;SDS011;64602;47.542;19.090;2023-02-15T16:14:21;29.52;;;14.55;;
75922;SDS011;64602;47.542;19.090;2023-02-15T16:19:36;29.10;;;15.07;;
75922;SDS011;64602;47.542;19.090;2023-02-15T16:35:21;33.93;;;15.37;;
75922;SDS011;64602;47.542;19.090;2023-02-15T16:45:27;29.08;;;14.20;;
75922;SDS011;64602;47.542;19.090;2023-02-15T16:50:36;30.40;;;14.48;;
75922;SDS011;64602;47.542;19.090;2023-02-15T16:55:40;30.40;;;13.60;;
75922;SDS011;64602;47.542;19.090;2023-02-15T17:00:43;31.00;;;14.30;;
75922;SDS011;64602;47.542;19.090;2023-02-15T17:06:04;31.05;;;14.55;;
75922;SDS011;64602;47.542;19.090;2023-02-15T17:11:41;32.27;;;13.70;;
75922;SDS011;64602;47.542;19.090;2023-02-15T17:16:45;27.37;;;13.50;;
75922;SDS011;64602;47.542;19.090;2023-02-15T17:21:55;28.27;;;14.07;;
75922;SDS011;64602;47.542;19.090;2023-02-15T17:27:01;33.23;;;14.87;;
75922;SDS011;64602;47.542;19.090;2023-02-15T17:32:13;30.73;;;14.53;;
75922;SDS011;64602;47.542;19.090;2023-02-15T17:37:24;33.35;;;15.05;;
75922;SDS011;64602;47.542;19.090;2023-02-15T17:42:32;34.65;;;14.73;;
75922;SDS011;64602;47.542;19.090;2023-02-15T17:47:34;32.20;;;14.73;;
75922;SDS011;64602;47.542;19.090;2023-02-15T17:52:36;32.67;;;15.05;;
75922;SDS011;64602;47.542;19.090;2023-02-15T17:57:38;30.52;;;14.75;;
75922;SDS011;64602;47.542;19.090;2023-02-15T18:02:40;32.60;;;13.97;;
75922;SDS011;64602;47.542;19.090;2023-02-15T18:08:01;35.00;;;16.05;;
75922;SDS011;64602;47.542;19.090;2023-02-15T18:13:22;36.63;;;16.50;;
75922;SDS011;64602;47.542;19.090;2023-02-15T18:18:24;32.63;;;15.73;;
75922;SDS011;64602;47.542;19.090;2023-02-15T18:23:27;35.03;;;16.10;;
75922;SDS011;64602;47.542;19.090;2023-02-15T18:28:29;36.33;;;16.12;;
75922;SDS011;64602;47.542;19.090;2023-02-15T18:33:35;33.75;;;16.42;;
75922;SDS011;64602;47.542;19.090;2023-02-15T18:38:41;33.33;;;14.97;;
75922;SDS011;64602;47.542;19.090;2023-02-15T18:43:44;33.58;;;15.80;;
75922;SDS011;64602;47.542;19.090;2023-02-15T18:48:47;34.55;;;15.18;;
75922;SDS011;64602;47.542;19.090;2023-02-15T18:53:50;32.73;;;15.43;;
75922;SDS011;64602;47.542;19.090;2023-02-15T18:58:53;35.70;;;16.70;;
75922;SDS011;64602;47.542;19.090;2023-02-15T19:03:55;36.75;;;17.42;;
75922;SDS011;64602;47.542;19.090;2023-02-15T19:08:57;35.67;;;15.87;;
75922;SDS011;64602;47.542;19.090;2023-02-15T19:14:00;46.43;;;18.70;;
75922;SDS011;64602;47.542;19.090;2023-02-15T19:19:02;40.67;;;17.10;;
75922;SDS011;64602;47.542;19.090;2023-02-15T19:24:10;44.00;;;17.83;;
75922;SDS011;64602;47.542;19.090;2023-02-15T19:29:20;45.90;;;19.57;;
75922;SDS011;64602;47.542;19.090;2023-02-15T19:34:26;42.35;;;18.75;;
75922;SDS011;64602;47.542;19.090;2023-02-15T19:39:36;46.33;;;19.17;;
75922;SDS011;64602;47.542;19.090;2023-02-15T19:44:40;40.40;;;18.90;;
75922;SDS011;64602;47.542;19.090;2023-02-15T19:49:44;41.65;;;18.15;;
75922;SDS011;64602;47.542;19.090;2023-02-15T19:54:46;40.60;;;18.83;;
75922;SDS011;64602;47.542;19.090;2023-02-15T19:59:49;41.70;;;19.40;;
75922;SDS011;64602;47.542;19.090;2023-02-15T20:04:52;43.03;;;18.87;;
75922;SDS011;64602;47.542;19.090;2023-02-15T20:09:54;43.70;;;19.92;;
75922;SDS011;64602;47.542;19.090;2023-02-15T20:14:57;41.47;;;19.35;;
75922;SDS011;64602;47.542;19.090;2023-02-15T20:19:59;42.03;;;18.60;;
75922;SDS011;64602;47.542;19.090;2023-02-15T20:25:02;44.95;;;18.73;;
75922;SDS011;64602;47.542;19.090;2023-02-15T20:30:06;40.30;;;17.73;;
75922;SDS011;64602;47.542;19.090;2023-02-15T20:35:16;44.50;;;19.33;;
75922;SDS011;64602;47.542;19.090;2023-02-15T20:40:22;42.95;;;18.52;;
75922;SDS011;64602;47.542;19.090;2023-02-15T20:45:27;41.45;;;19.50;;
75922;SDS011;64602;47.542;19.090;2023-02-15T20:50:31;40.27;;;18.43;;
75922;SDS011;64602;47.542;19.090;2023-02-15T20:55:34;40.77;;;18.40;;
75922;SDS011;64602;47.542;19.090;2023-02-15T21:00:36;46.53;;;19.62;;
75922;SDS011;64602;47.542;19.090;2023-02-15T21:05:38;39.53;;;19.00;;
75922;SDS011;64602;47.542;19.090;2023-02-15T21:10:41;40.73;;;18.37;;
75922;SDS011;64602;47.542;19.090;2023-02-15T21:15:46;40.03;;;17.90;;
75922;SDS011;64602;47.542;19.090;2023-02-15T21:20:51;48.22;;;19.50;;
75922;SDS011;64602;47.542;19.090;2023-02-15T21:25:56;43.23;;;19.20;;
75922;SDS011;64602;47.542;19.090;2023-02-15T21:30:58;42.28;;;19.40;;
75922;SDS011;64602;47.542;19.090;2023-02-15T21:36:01;40.55;;;18.85;;
